Alder Creek, OR

12:50 AM PDT on October 02, 2014 (GMT -0700)
Pearson | Change Station
CLOSE
Current Station
Airport
Location: Vancouver,
Elevation: 26 ft
Nearby Weather Stations

Elev 26 ft 45.62 °N, 122.65 °W | Updated 57 minutes ago

Partly Cloudy
Partly Cloudy
50 °F
Feels Like 50 °F
N
0
Wind Variable Wind from North

Today
High -- | Low -- °F
--% Chance of Precip.
Yesterday
High -- | Low -- °F
Precip. -- in
7:08 AM 6:47 PM
First Quarter, 56% visible
Pressure 30.21 in
Visibility 10.0 miles
Clouds Clear
Dew Point 46 °F
Humidity 86%
Rainfall 0.09 in
Snow Depth Not available.
UV 0 out of 12
Pollen .90 out of 12
Air Quality Not available.
Flu Activity Not available.
METAR KVUO 020653Z AUTO 00000KT 10SM CLR 10/08 A3021 RMK AO2 SLP230 T01000078

More Conditions Fewer Conditions

Pressure 30.21 in
Visibility 10.0 miles
Clouds Clear
Dew Point 46 °F
Humidity 86%
Rainfall 0.09 in
Snow Depth Not available.
UV 0 out of 12
Pollen .90 out of 12
Air Quality Not available.
Flu Activity Not available.
METAR KVUO 020653Z AUTO 00000KT 10SM CLR 10/08 A3021 RMK AO2 SLP230 T01000078

More Conditions Fewer Conditions

10-Day Weather Forecast

Almanac

Astronomy

Oct. 02, 2014 Rise Set
Actual Time 7:08 AM PDT 6:47 PM PDT
Civil Twilight 6:39 AM PDT 7:16 PM PDT
Nautical Twilight 6:04 AM PDT 7:50 PM PDT
Astronomical Twilight 5:29 AM PDT 8:25 PM PDT
Moon 3:12 PM PDT 12:15 AM PDT
Length of Visible Light 12h 37m
Length of Day
11h 38m
Tomorrow will be 3m 9s shorter.
First Quarter, 56% of the Moon is Illuminated
Today
First Quarter
Oct 8
Full
Oct 15
Last Quarter
Oct 23
New
Oct 30
First Quarter

Today's Extremes

State Highs State Lows

Community

WunderPhotos

Upload Photos

1,758,198 photos uploaded!

WunderBlogs® & News

By Dr. Jeff Masters
Director of Meteorology, Weather Underground
By Kari Strenfel
Meteorologist, Weather Underground
By Christopher C. Burt
Weather Historian, Weather Underground
October 2, 2014
October 2, 2014
October 2, 2014

Nearby

Snow Depth

Station Depth Elevation
Beaver Reservoir 0 in 5150 ft
Lake Creek R.S. 0 in 5200 ft
Hogg Pass 1 in 4760 ft
Salt Creek Falls 0 in 4000 ft
Cascade Summit 0 in 4880 ft

Earthquake Activity

City Distance Mag. Time & Date
No recent earthquake activity has been reported nearby.
Minimum magnitude displayed is 2.5.

Coastal Water Temperatures

Place Temperature
No Stations Reporting

Nearby Weather Stations